East Corinth, ME

1:21 AM EST on January 29, 2015 (GMT -0500)
KMEGARLA2 | Change Station
CLOSE
Current Station
Personal Weather Station
Location: Garland, ME
Elevation: 410 ft
Nearby Weather Stations
Active Advisory: Winter Storm Watch Active Notice: Record Report

Elev 410 ft 45.02 °N, 69.13 °W | Updated 36 seconds ago

Partly Cloudy
Partly Cloudy
15.3 °F
Feels Like 15 °F
N
1.0
Wind Variable Wind from WNW
Gusts 13.0 mph

Today
High -- | Low -- °F
--% Chance of Precip.
Yesterday
High -- | Low -- °F
Precip. -- in
6:59 AM 4:39 PM
Waxing Gibbous, 71% visible
Pressure 30.20 in
Visibility 10.0 miles
Clouds Clear
Windchill 15 °F
Dew Point 6 °F
Humidity 65%
Rainfall 0.00 in
Snow Depth Not available.
UV 0 out of 12
Pollen .10 out of 12
Air Quality Not available.
Flu Activity Not available.
METAR KBGR 290553Z 00000KT 10SM CLR M19/M21 A3018 RMK AO2 SLP225 4/021 T11891211 11083 21194 53025

More Conditions Fewer Conditions

Pressure 30.20 in
Visibility 10.0 miles
Clouds Clear
Windchill 15 °F
Dew Point 6 °F
Humidity 65%
Rainfall 0.00 in
Snow Depth Not available.
UV 0 out of 12
Pollen .10 out of 12
Air Quality Not available.
Flu Activity Not available.
METAR KBGR 290553Z 00000KT 10SM CLR M19/M21 A3018 RMK AO2 SLP225 4/021 T11891211 11083 21194 53025

More Conditions Fewer Conditions

10-Day Weather Forecast

Almanac

Astronomy

Jan. 29, 2015 Rise Set
Actual Time
Civil Twilight
Nautical Twilight
Astronomical Twilight
Moon
Length of Visible Light
Length of Day
Tomorrow will be .
, % of the Moon is Illuminated

Today's Extremes

State Highs State Lows

Community

WunderPhotos

Upload Photos

1,791,369 photos uploaded!

WunderBlogs® & News

Nearby

Air Quality

  Air Quality AQ Index Pollutant
Not available.

Snow Depth

Station Depth Elevation

Earthquake Activity

City Distance Mag. Time & Date
Minimum magnitude displayed is 2.5.

Coastal Water Temperatures

Place Temperature

Nearby Weather Stations